Time;durP1;ratioP1;P1;durP2;ratioP2;P2;SDS_P1;SDS_P2;PMS_P1;PMS_P2;Temp;Humidity;BMP_temperature;BMP_pressure;BME280_temperature;BME280_humidity;BME280_pressure;Samples;Min_cycle;Max_cycle;Signal;HPM_P1;HPM_P2
2021/03/06 00:00:06;;;;;;;16.77;7.13;;;;;;;;;;5073461;28;20037;-57
2021/03/06 00:02:32;;;;;;;20.80;7.35;;;;;;;;;;5074755;28;20110;-58
2021/03/06 00:04:57;;;;;;;20.20;4.90;;;;;;;;;;5073979;28;20598;-59
2021/03/06 00:07:22;;;;;;;15.33;4.80;;;;;;;;;;5074823;28;20047;-58
2021/03/06 00:09:48;;;;;;;10.53;4.90;;;;;;;;;;5074006;28;20037;-58
2021/03/06 00:12:13;;;;;;;13.40;4.97;;;;;;;;;;5074388;28;20064;-57
2021/03/06 00:14:39;;;;;;;11.70;5.37;;;;;;;;;;5074472;28;20036;-59
2021/03/06 00:17:04;;;;;;;13.70;4.97;;;;;;;;;;5074523;28;20024;-59
2021/03/06 00:19:29;;;;;;;12.37;5.00;;;;;;;;;;5074374;28;20029;-58
2021/03/06 00:21:55;;;;;;;14.77;5.03;;;;;;;;;;5072521;28;20036;-59
2021/03/06 00:24:20;;;;;;;8.23;4.33;;;;;;;;;;5074437;28;20041;-59
2021/03/06 00:26:46;;;;;;;16.00;4.18;;;;;;;;;;5073467;28;20384;-59
2021/03/06 00:29:11;;;;;;;9.67;3.27;;;;;;;;;;5074226;28;20465;-59
2021/03/06 00:31:37;;;;;;;9.63;4.07;;;;;;;;;;5072943;28;20170;-59
2021/03/06 00:34:03;;;;;;;16.88;4.88;;;;;;;;;;5073698;28;20039;-59
2021/03/06 00:36:28;;;;;;;8.40;3.58;;;;;;;;;;5073757;28;20039;-58
2021/03/06 00:38:54;;;;;;;10.33;3.97;;;;;;;;;;5073708;28;20033;-59
2021/03/06 00:41:19;;;;;;;12.33;4.63;;;;;;;;;;5054824;28;20601;-59
2021/03/06 00:43:44;;;;;;;13.43;4.73;;;;;;;;;;5073112;28;20013;-59
2021/03/06 00:46:10;;;;;;;12.47;4.67;;;;;;;;;;5074131;28;20098;-58
2021/03/06 00:48:35;;;;;;;15.43;4.87;;;;;;;;;;5056008;28;20342;-58
2021/03/06 00:51:00;;;;;;;12.50;4.90;;;;;;;;;;5072946;28;20492;-58
2021/03/06 00:53:26;;;;;;;19.43;5.60;;;;;;;;;;5055955;28;20029;-58
2021/03/06 00:55:51;;;;;;;12.80;5.67;;;;;;;;;;5055257;28;20454;-58
2021/03/06 00:58:16;;;;;;;12.40;5.37;;;;;;;;;;5055632;28;20031;-58
2021/03/06 01:00:44;;;;;;;17.17;6.53;;;;;;;;;;5054930;28;20032;-59
2021/03/06 01:03:10;;;;;;;16.10;6.40;;;;;;;;;;5073401;28;20154;-58
2021/03/06 01:05:35;;;;;;;14.23;5.70;;;;;;;;;;5073504;28;20322;-59
2021/03/06 01:08:00;;;;;;;13.73;5.50;;;;;;;;;;5055103;28;20040;-58
2021/03/06 01:10:30;;;;;;;15.83;4.73;;;;;;;;;;5073334;28;20048;-58
2021/03/06 01:12:56;;;;;;;8.90;4.57;;;;;;;;;;5054856;28;20024;-58
2021/03/06 01:15:21;;;;;;;11.57;3.83;;;;;;;;;;5073451;28;20030;-59
2021/03/06 01:17:46;;;;;;;20.13;5.07;;;;;;;;;;5054787;28;20041;-59
2021/03/06 01:20:12;;;;;;;8.10;4.27;;;;;;;;;;5073547;28;20056;-58
2021/03/06 01:22:37;;;;;;;20.27;5.50;;;;;;;;;;5055280;28;20020;-58
2021/03/06 01:25:03;;;;;;;22.43;5.90;;;;;;;;;;5072595;28;20102;-59
2021/03/06 01:27:29;;;;;;;18.02;5.25;;;;;;;;;;5073234;28;20063;-58
2021/03/06 01:29:54;;;;;;;17.87;6.83;;;;;;;;;;5054651;28;20075;-59
2021/03/06 01:32:20;;;;;;;12.83;5.40;;;;;;;;;;5073060;28;20021;-59
2021/03/06 01:34:45;;;;;;;21.97;5.57;;;;;;;;;;5072767;28;20032;-59
2021/03/06 01:37:10;;;;;;;16.03;6.77;;;;;;;;;;5058539;28;20040;-59
2021/03/06 01:39:36;;;;;;;27.63;6.07;;;;;;;;;;5071632;28;20028;-58
2021/03/06 01:42:01;;;;;;;13.10;3.93;;;;;;;;;;5054228;28;20039;-59
2021/03/06 01:44:26;;;;;;;9.47;3.60;;;;;;;;;;5071276;28;20347;-58
2021/03/06 01:46:52;;;;;;;16.60;5.17;;;;;;;;;;5072212;28;20044;-59
2021/03/06 01:49:17;;;;;;;15.17;5.13;;;;;;;;;;5071042;28;20473;-58
2021/03/06 01:51:43;;;;;;;14.80;5.20;;;;;;;;;;5072495;28;20034;-59
2021/03/06 01:54:10;;;;;;;13.90;4.77;;;;;;;;;;5053884;28;20051;-59
2021/03/06 01:56:35;;;;;;;;;;;;;;;;;;5072899;28;20468;-58
2021/03/06 01:59:00;;;;;;;11.37;4.53;;;;;;;;;;5071515;28;19954;-58
2021/03/06 02:01:26;;;;;;;12.63;4.60;;;;;;;;;;5072476;28;20464;-59
2021/03/06 02:03:51;;;;;;;27.33;5.03;;;;;;;;;;5071854;28;20067;-59
2021/03/06 02:06:17;;;;;;;14.07;5.17;;;;;;;;;;5071326;28;20037;-59
2021/03/06 02:08:42;;;;;;;17.00;5.53;;;;;;;;;;5071089;28;20040;-58
2021/03/06 02:11:08;;;;;;;11.73;4.60;;;;;;;;;;5071711;28;20577;-59
2021/03/06 02:13:52;;;;;;;15.67;4.13;;;;;;;;;;5072149;28;20063;-59
2021/03/06 02:16:33;;;;;;;9.18;3.92;;;;;;;;;;5072184;28;20114;-58
2021/03/06 02:19:05;;;;;;;9.48;4.15;;;;;;;;;;5071667;28;20037;-59
2021/03/06 02:21:49;;;;;;;15.38;4.60;;;;;;;;;;5072246;28;20039;-58
2021/03/06 02:24:23;;;;;;;16.83;4.35;;;;;;;;;;5071119;28;20491;-59
2021/03/06 02:27:07;;;;;;;10.75;4.40;;;;;;;;;;5071937;28;20052;-58
2021/03/06 02:29:48;;;;;;;16.90;4.68;;;;;;;;;;5071721;28;20040;-59
2021/03/06 02:32:13;;;;;;;10.68;4.00;;;;;;;;;;5071472;28;20123;-59
2021/03/06 02:34:43;;;;;;;20.57;5.20;;;;;;;;;;5071882;28;20182;-59
2021/03/06 02:37:09;;;;;;;10.55;4.53;;;;;;;;;;5069621;28;20045;-58
2021/03/06 02:39:37;;;;;;;10.13;4.00;;;;;;;;;;5071901;28;20032;-59
2021/03/06 02:42:05;;;;;;;12.18;4.20;;;;;;;;;;5069944;28;20435;-59
2021/03/06 02:44:31;;;;;;;19.52;5.88;;;;;;;;;;5071528;28;20119;-59
2021/03/06 02:46:58;;;;;;;17.05;4.95;;;;;;;;;;5071067;28;20028;-58
2021/03/06 02:49:23;;;;;;;15.57;4.97;;;;;;;;;;5071189;28;20423;-58
2021/03/06 02:51:49;;;;;;;15.37;3.73;;;;;;;;;;5071742;28;20037;-58
2021/03/06 02:54:14;;;;;;;10.17;4.27;;;;;;;;;;5069755;28;20154;-59
2021/03/06 02:56:39;;;;;;;10.53;4.07;;;;;;;;;;5070308;28;20037;-59
2021/03/06 02:59:08;;;;;;;7.93;3.37;;;;;;;;;;5070970;28;20032;-59
2021/03/06 03:01:41;;;;;;;9.23;3.47;;;;;;;;;;5071576;28;20032;-58
2021/03/06 03:04:18;;;;;;;11.52;5.05;;;;;;;;;;5068729;28;20032;-59
2021/03/06 03:06:45;;;;;;;13.85;4.10;;;;;;;;;;5071841;28;20037;-59
2021/03/06 03:09:18;;;;;;;13.20;3.65;;;;;;;;;;5070813;28;20044;-58
2021/03/06 03:11:53;;;;;;;9.02;3.78;;;;;;;;;;5072277;28;20518;-58
2021/03/06 03:14:24;;;;;;;18.13;4.60;;;;;;;;;;5071865;28;20044;-60
2021/03/06 03:17:00;;;;;;;16.90;4.13;;;;;;;;;;5072046;28;20128;-59
2021/03/06 03:19:30;;;;;;;13.40;4.47;;;;;;;;;;5071584;28;20024;-59
2021/03/06 03:21:57;;;;;;;12.60;4.07;;;;;;;;;;5072038;28;20060;-59
2021/03/06 03:24:24;;;;;;;8.15;3.65;;;;;;;;;;5054961;28;20527;-59
2021/03/06 03:26:50;;;;;;;5.70;2.45;;;;;;;;;;5071762;28;20045;-59
2021/03/06 03:29:16;;;;;;;9.70;3.72;;;;;;;;;;5070864;28;20041;-59
2021/03/06 03:31:46;;;;;;;14.05;3.47;;;;;;;;;;5053560;28;20059;-59
2021/03/06 03:34:12;;;;;;;11.88;3.67;;;;;;;;;;5070505;28;20033;-59
2021/03/06 03:36:38;;;;;;;10.30;4.43;;;;;;;;;;5071246;28;20055;-59
2021/03/06 03:39:04;;;;;;;27.42;4.53;;;;;;;;;;5070861;28;20503;-59
2021/03/06 03:41:29;;;;;;;10.80;4.22;;;;;;;;;;5053128;28;20123;-58
2021/03/06 03:43:54;;;;;;;12.13;3.87;;;;;;;;;;5070960;28;20534;-58
2021/03/06 03:46:20;;;;;;;10.90;4.07;;;;;;;;;;5070781;28;20119;-59
2021/03/06 03:48:46;;;;;;;11.52;4.10;;;;;;;;;;5070984;28;20051;-58
2021/03/06 03:51:12;;;;;;;8.37;3.23;;;;;;;;;;5052385;28;20040;-59
2021/03/06 03:53:38;;;;;;;25.85;4.32;;;;;;;;;;5071092;28;20111;-59
2021/03/06 03:56:03;;;;;;;10.47;4.57;;;;;;;;;;5070199;28;20111;-59
2021/03/06 03:58:28;;;;;;;12.00;3.83;;;;;;;;;;5070905;28;20749;-59
2021/03/06 04:00:55;;;;;;;12.50;5.00;;;;;;;;;;5070851;28;20108;-64
2021/03/06 04:03:20;;;;;;;11.15;3.50;;;;;;;;;;5070198;28;20025;-59
2021/03/06 04:05:45;;;;;;;14.17;5.87;;;;;;;;;;5052871;28;20039;-58
2021/03/06 04:08:10;;;;;;;9.37;4.77;;;;;;;;;;5069732;28;20399;-59
2021/03/06 04:10:36;;;;;;;9.70;4.03;;;;;;;;;;5070913;28;20029;-59
2021/03/06 04:13:01;;;;;;;12.83;5.30;;;;;;;;;;5070693;28;20115;-59
2021/03/06 04:15:27;;;;;;;12.50;4.17;;;;;;;;;;5071219;28;20033;-59
2021/03/06 04:17:52;;;;;;;15.07;4.30;;;;;;;;;;5074308;28;20024;-59
2021/03/06 04:20:21;;;;;;;15.57;4.53;;;;;;;;;;5073389;28;20028;-59
2021/03/06 04:22:47;;;;;;;12.77;4.00;;;;;;;;;;5073897;28;20273;-59
2021/03/06 04:25:12;;;;;;;14.90;4.97;;;;;;;;;;5073525;28;20036;-59
2021/03/06 04:27:38;;;;;;;12.90;5.43;;;;;;;;;;5074242;28;20032;-60
2021/03/06 04:30:04;;;;;;;10.00;3.97;;;;;;;;;;5074302;28;20119;-59
2021/03/06 04:32:30;;;;;;;14.15;4.65;;;;;;;;;;5073772;28;20543;-59
2021/03/06 04:34:55;;;;;;;13.07;3.90;;;;;;;;;;5073758;28;20120;-59
2021/03/06 04:37:20;;;;;;;12.33;4.23;;;;;;;;;;5073087;28;20047;-59
2021/03/06 04:39:46;;;;;;;15.10;5.03;;;;;;;;;;5074002;28;20056;-59
2021/03/06 04:42:11;;;;;;;20.40;4.23;;;;;;;;;;5055070;28;20062;-60
2021/03/06 04:44:36;;;;;;;10.63;3.87;;;;;;;;;;5073951;28;20028;-59
2021/03/06 04:47:02;;;;;;;12.17;4.27;;;;;;;;;;5073622;28;20021;-60
2021/03/06 04:49:28;;;;;;;15.43;4.75;;;;;;;;;;5054889;28;20040;-59
2021/03/06 04:51:53;;;;;;;13.80;4.60;;;;;;;;;;5073536;28;20134;-59
2021/03/06 04:54:18;;;;;;;10.97;4.20;;;;;;;;;;5055290;28;20151;-58
2021/03/06 04:56:44;;;;;;;13.43;4.90;;;;;;;;;;5056132;28;20032;-59
2021/03/06 04:59:09;;;;;;;20.20;5.30;;;;;;;;;;5072798;28;20071;-59
2021/03/06 05:01:34;;;;;;;16.63;4.27;;;;;;;;;;5073549;28;20047;-59
2021/03/06 05:04:00;;;;;;;19.57;6.20;;;;;;;;;;5073001;28;20079;-58
2021/03/06 05:06:25;;;;;;;12.20;6.33;;;;;;;;;;5072408;28;20040;-58
2021/03/06 05:08:50;;;;;;;12.13;6.50;;;;;;;;;;5055391;28;20036;-58
2021/03/06 05:11:16;;;;;;;10.53;5.67;;;;;;;;;;5054500;28;20115;-58
2021/03/06 05:13:41;;;;;;;17.30;5.70;;;;;;;;;;5055751;28;20039;-59
2021/03/06 05:16:06;;;;;;;21.40;6.20;;;;;;;;;;5073910;28;20024;-58
2021/03/06 05:18:32;;;;;;;15.67;5.37;;;;;;;;;;5072118;28;20037;-59
2021/03/06 05:20:58;;;;;;;16.73;5.10;;;;;;;;;;5073465;28;20534;-60
2021/03/06 05:23:23;;;;;;;11.88;5.00;;;;;;;;;;5054532;28;20033;-60
2021/03/06 05:25:48;;;;;;;14.53;4.57;;;;;;;;;;5054937;28;20495;-58
2021/03/06 05:28:18;;;;;;;10.70;5.20;;;;;;;;;;5072191;28;20036;-59
2021/03/06 05:30:43;;;;;;;10.50;5.13;;;;;;;;;;5073104;28;20032;-59
2021/03/06 05:33:08;;;;;;;17.63;5.40;;;;;;;;;;5055049;28;20465;-59
2021/03/06 05:35:34;;;;;;;15.50;5.60;;;;;;;;;;5072234;28;20476;-58
2021/03/06 05:37:59;;;;;;;14.63;5.30;;;;;;;;;;5072866;28;20408;-59
2021/03/06 05:40:28;;;;;;;13.43;6.00;;;;;;;;;;5072068;28;20029;-58
2021/03/06 05:42:54;;;;;;;12.65;4.95;;;;;;;;;;5072714;28;20524;-59
2021/03/06 05:45:19;;;;;;;9.97;5.10;;;;;;;;;;5072135;28;20147;-59
2021/03/06 05:47:44;;;;;;;15.40;6.13;;;;;;;;;;5054555;28;20449;-59
2021/03/06 05:50:10;;;;;;;13.83;5.00;;;;;;;;;;5072726;28;20035;-59
2021/03/06 05:52:37;;;;;;;18.00;5.23;;;;;;;;;;5072003;28;20032;-59
2021/03/06 05:55:03;;;;;;;16.00;5.55;;;;;;;;;;5072606;28;20453;-59
2021/03/06 05:57:29;;;;;;;15.37;5.87;;;;;;;;;;5053773;28;20041;-59
2021/03/06 05:59:54;;;;;;;13.73;5.95;;;;;;;;;;5072609;28;20257;-59
2021/03/06 06:02:20;;;;;;;14.37;5.47;;;;;;;;;;5037292;28;20048;-59
2021/03/06 06:04:46;;;;;;;12.98;5.20;;;;;;;;;;5072333;28;20025;-59
2021/03/06 06:07:14;;;;;;;16.33;4.55;;;;;;;;;;5072373;28;20032;-59
2021/03/06 06:09:40;;;;;;;19.23;5.85;;;;;;;;;;5072056;28;20059;-59
2021/03/06 06:12:06;;;;;;;17.03;5.50;;;;;;;;;;5072377;28;20488;-59
2021/03/06 06:14:31;;;;;;;12.98;5.18;;;;;;;;;;5071644;28;20035;-58
2021/03/06 06:16:56;;;;;;;17.40;5.50;;;;;;;;;;5053965;28;20024;-59
2021/03/06 06:19:22;;;;;;;17.90;6.40;;;;;;;;;;5071528;28;20028;-59
2021/03/06 06:21:48;;;;;;;13.52;5.32;;;;;;;;;;5037438;28;20024;-60
2021/03/06 06:24:15;;;;;;;12.32;5.32;;;;;;;;;;5072073;28;20032;-59
2021/03/06 06:26:51;;;;;;;14.57;6.28;;;;;;;;;;5071435;28;20123;-60
2021/03/06 06:29:16;;;;;;;14.48;5.20;;;;;;;;;;5053887;28;20029;-59
2021/03/06 06:31:51;;;;;;;18.07;6.77;;;;;;;;;;5071644;28;20078;-58
2021/03/06 06:34:16;;;;;;;15.20;6.20;;;;;;;;;;5071645;28;20024;-59
2021/03/06 06:36:41;;;;;;;12.50;4.63;;;;;;;;;;5052944;28;20511;-59
2021/03/06 06:39:07;;;;;;;11.50;5.73;;;;;;;;;;5070993;28;20058;-59
2021/03/06 06:41:48;;;;;;;17.70;5.25;;;;;;;;;;5069834;28;20035;-59
2021/03/06 06:44:14;;;;;;;12.80;5.70;;;;;;;;;;5071768;28;20025;-58
2021/03/06 06:46:39;;;;;;;12.33;5.30;;;;;;;;;;5071141;28;20035;-59
2021/03/06 06:49:05;;;;;;;16.00;5.67;;;;;;;;;;5071628;28;20409;-59
2021/03/06 06:51:30;;;;;;;16.17;4.93;;;;;;;;;;5069694;28;20043;-59
2021/03/06 06:54:09;;;;;;;16.43;5.10;;;;;;;;;;5054197;28;20033;-60
2021/03/06 06:56:34;;;;;;;17.02;5.13;;;;;;;;;;5072264;28;20078;-58
2021/03/06 06:59:03;;;;;;;13.37;5.07;;;;;;;;;;5072105;28;20028;-58
2021/03/06 07:01:32;;;;;;;11.85;4.88;;;;;;;;;;5071945;28;20028;-59
2021/03/06 07:04:05;;;;;;;24.33;6.10;;;;;;;;;;5070669;28;20033;-59
2021/03/06 07:06:30;;;;;;;16.90;5.50;;;;;;;;;;5050738;28;20036;-59
2021/03/06 07:09:05;;;;;;;15.17;5.10;;;;;;;;;;5054727;28;20477;-59
2021/03/06 07:11:30;;;;;;;19.80;5.75;;;;;;;;;;5068873;28;20076;-59
2021/03/06 07:13:55;;;;;;;13.10;5.70;;;;;;;;;;5069582;28;20141;-58
2021/03/06 07:16:21;;;;;;;13.90;4.50;;;;;;;;;;5071393;28;20047;-58
2021/03/06 07:18:58;;;;;;;17.20;6.13;;;;;;;;;;5070527;28;20029;-59
2021/03/06 07:21:24;;;;;;;27.83;5.00;;;;;;;;;;5070315;28;20042;-59
2021/03/06 07:23:49;;;;;;;15.85;4.70;;;;;;;;;;5070236;28;20107;-59
2021/03/06 07:26:15;;;;;;;15.33;5.27;;;;;;;;;;5052933;28;20032;-58
2021/03/06 07:28:40;;;;;;;14.27;6.43;;;;;;;;;;5070169;28;20431;-59
2021/03/06 07:31:05;;;;;;;13.17;6.50;;;;;;;;;;5070937;28;20116;-59
2021/03/06 07:33:31;;;;;;;19.63;6.47;;;;;;;;;;5052674;28;20123;-58
2021/03/06 07:35:56;;;;;;;16.73;6.40;;;;;;;;;;5071186;28;20036;-58
2021/03/06 07:38:22;;;;;;;14.00;5.80;;;;;;;;;;5071415;28;20053;-58
2021/03/06 07:40:49;;;;;;;18.00;5.23;;;;;;;;;;5070552;28;20033;-59
2021/03/06 07:43:22;;;;;;;16.77;6.10;;;;;;;;;;5070243;28;20303;-58
2021/03/06 07:45:51;;;;;;;16.73;5.60;;;;;;;;;;5051061;28;20056;-59
2021/03/06 07:48:19;;;;;;;16.20;4.15;;;;;;;;;;5051709;28;20024;-59
2021/03/06 07:50:45;;;;;;;24.02;7.38;;;;;;;;;;5070657;28;20033;-58
2021/03/06 07:53:12;;;;;;;25.60;7.25;;;;;;;;;;5055521;28;20035;-59
2021/03/06 07:55:38;;;;;;;12.25;4.75;;;;;;;;;;5054955;28;20474;-58
2021/03/06 07:58:08;;;;;;;20.75;5.30;;;;;;;;;;5055381;28;20099;-58
2021/03/06 08:00:38;;;;;;;12.95;4.72;;;;;;;;;;5072460;28;20100;-58
2021/03/06 08:03:22;;;;;;;18.10;5.55;;;;;;;;;;5072701;28;20029;-59
2021/03/06 08:05:48;;;;;;;27.60;8.85;;;;;;;;;;5072034;28;20340;-59
2021/03/06 08:08:31;;;;;;;11.27;6.33;;;;;;;;;;5073001;28;20055;-59
2021/03/06 08:11:03;;;;;;;17.55;5.80;;;;;;;;;;5071166;28;20059;-59
2021/03/06 08:13:32;;;;;;;15.90;5.85;;;;;;;;;;5054353;28;20036;-59
2021/03/06 08:15:58;;;;;;;14.93;5.32;;;;;;;;;;5073512;28;20037;-59
2021/03/06 08:18:30;;;;;;;12.00;5.33;;;;;;;;;;5070680;28;20396;-59
2021/03/06 08:21:16;;;;;;;16.08;5.43;;;;;;;;;;5056565;28;20036;-59
2021/03/06 08:23:41;;;;;;;15.30;5.82;;;;;;;;;;5073686;28;20025;-59
2021/03/06 08:26:15;;;;;;;18.97;6.87;;;;;;;;;;5074314;28;20543;-59
2021/03/06 08:28:41;;;;;;;14.07;6.90;;;;;;;;;;5073767;28;20042;-60
2021/03/06 08:31:24;;;;;;;16.23;5.57;;;;;;;;;;5073533;28;20040;-59
2021/03/06 08:34:10;;;;;;;16.15;6.00;;;;;;;;;;5053218;28;20033;-60
2021/03/06 08:36:35;;;;;;;19.85;6.90;;;;;;;;;;5072920;28;20060;-61
2021/03/06 08:39:00;;;;;;;19.17;6.67;;;;;;;;;;5074277;28;20079;-59
2021/03/06 08:41:28;;;;;;;18.73;6.77;;;;;;;;;;5074118;28;20357;-59
2021/03/06 08:43:54;;;;;;;16.75;6.90;;;;;;;;;;5073243;28;20560;-59
2021/03/06 08:46:19;;;;;;;9.60;4.67;;;;;;;;;;5073543;28;20115;-59
2021/03/06 08:48:45;;;;;;;9.90;3.83;;;;;;;;;;5072890;28;20028;-58
2021/03/06 08:51:10;;;;;;;15.30;6.18;;;;;;;;;;5055746;28;20461;-59
2021/03/06 08:53:35;;;;;;;10.47;4.40;;;;;;;;;;5055264;28;20056;-59
2021/03/06 08:56:01;;;;;;;10.00;4.37;;;;;;;;;;5073590;28;20032;-60
2021/03/06 08:58:26;;;;;;;11.93;4.43;;;;;;;;;;5055850;28;20071;-58
2021/03/06 09:00:53;;;;;;;20.30;5.80;;;;;;;;;;5073081;28;20036;-59
2021/03/06 09:03:18;;;;;;;;;;;;;;;;;;5054877;28;20376;-58
2021/03/06 09:05:44;;;;;;;10.60;3.70;;;;;;;;;;5072848;28;19923;-59
2021/03/06 09:08:10;;;;;;;11.75;4.07;;;;;;;;;;5073354;28;20040;-59
2021/03/06 09:10:37;;;;;;;12.60;4.80;;;;;;;;;;5054925;28;20032;-59
2021/03/06 09:13:04;;;;;;;11.60;3.50;;;;;;;;;;5055172;28;20099;-59
2021/03/06 09:15:35;;;;;;;13.45;3.50;;;;;;;;;;5073357;28;20032;-59
2021/03/06 09:18:02;;;;;;;10.27;3.17;;;;;;;;;;5055096;28;20033;-58
2021/03/06 09:20:28;;;;;;;8.70;2.35;;;;;;;;;;5073192;28;20078;-59
2021/03/06 09:22:54;;;;;;;8.52;3.00;;;;;;;;;;5072401;28;20568;-59
2021/03/06 09:25:28;;;;;;;8.10;2.37;;;;;;;;;;5072727;28;20090;-59
2021/03/06 09:27:54;;;;;;;11.67;3.50;;;;;;;;;;5072166;28;20150;-59
2021/03/06 09:30:27;;;;;;;10.33;3.27;;;;;;;;;;5054876;28;20301;-59
2021/03/06 09:32:52;;;;;;;12.87;2.30;;;;;;;;;;5054013;28;20309;-59
2021/03/06 09:35:18;;;;;;;7.75;2.60;;;;;;;;;;5073289;28;20281;-59
2021/03/06 09:37:44;;;;;;;8.73;2.70;;;;;;;;;;5071554;28;20041;-59
2021/03/06 09:40:20;;;;;;;10.20;2.50;;;;;;;;;;5073089;28;20414;-59
2021/03/06 09:42:48;;;;;;;9.45;4.15;;;;;;;;;;5072368;28;20032;-59
2021/03/06 09:45:14;;;;;;;11.97;4.40;;;;;;;;;;5071808;28;20414;-59
2021/03/06 09:47:39;;;;;;;11.55;3.17;;;;;;;;;;5071894;28;20277;-59
2021/03/06 09:50:05;;;;;;;6.00;2.10;;;;;;;;;;5072599;28;20053;-59
2021/03/06 09:52:31;;;;;;;13.05;2.92;;;;;;;;;;5072514;28;20740;-59
2021/03/06 09:54:56;;;;;;;;;;;;;;;;;;5072200;28;20356;-59
2021/03/06 09:57:25;;;;;;;8.57;2.50;;;;;;;;;;5054232;28;19954;-59
2021/03/06 09:59:50;;;;;;;4.57;1.90;;;;;;;;;;5053371;28;20029;-59
2021/03/06 10:02:17;;;;;;;5.03;1.37;;;;;;;;;;5071843;28;20261;-59
2021/03/06 10:04:46;;;;;;;7.97;2.13;;;;;;;;;;5071076;28;20036;-59
2021/03/06 10:07:12;;;;;;;7.60;1.20;;;;;;;;;;5072265;28;20079;-59
2021/03/06 10:09:38;;;;;;;6.82;1.40;;;;;;;;;;5072249;28;20047;-60
2021/03/06 10:12:05;;;;;;;4.38;1.10;;;;;;;;;;5072218;28;20024;-58
2021/03/06 10:14:30;;;;;;;5.70;1.33;;;;;;;;;;5072105;28;20036;-59
2021/03/06 10:16:57;;;;;;;12.52;1.60;;;;;;;;;;5071153;28;20036;-58
2021/03/06 10:19:24;;;;;;;3.03;1.03;;;;;;;;;;5071827;28;20100;-58
2021/03/06 10:22:06;;;;;;;4.80;2.20;;;;;;;;;;5071190;28;20036;-59
2021/03/06 10:24:50;;;;;;;5.63;1.37;;;;;;;;;;5071822;28;20123;-59
2021/03/06 10:27:15;;;;;;;4.17;1.10;;;;;;;;;;5071995;28;20107;-59
2021/03/06 10:29:40;;;;;;;9.73;1.87;;;;;;;;;;5053095;28;20516;-59
2021/03/06 10:32:06;;;;;;;5.80;1.50;;;;;;;;;;5053657;28;20253;-59
2021/03/06 10:34:33;;;;;;;9.48;1.90;;;;;;;;;;5071729;28;20032;-59
2021/03/06 10:37:04;;;;;;;6.97;1.63;;;;;;;;;;5070994;28;20043;-59
2021/03/06 10:39:30;;;;;;;7.63;1.30;;;;;;;;;;5071955;28;20273;-59
2021/03/06 10:41:56;;;;;;;4.47;1.33;;;;;;;;;;5070936;28;20300;-59
2021/03/06 10:44:21;;;;;;;3.83;1.63;;;;;;;;;;5070746;28;20558;-59
2021/03/06 10:47:00;;;;;;;6.60;2.20;;;;;;;;;;5070972;28;20517;-59
2021/03/06 10:49:38;;;;;;;7.03;1.53;;;;;;;;;;5053503;28;20039;-59
2021/03/06 10:52:05;;;;;;;6.03;1.23;;;;;;;;;;5052977;28;20368;-59
2021/03/06 10:54:45;;;;;;;6.83;1.60;;;;;;;;;;5053357;28;20768;-59
2021/03/06 10:57:10;;;;;;;6.33;1.50;;;;;;;;;;5071022;28;20696;-59
2021/03/06 10:59:36;;;;;;;8.80;1.47;;;;;;;;;;5070700;28;20277;-59
2021/03/06 11:02:02;;;;;;;8.32;1.40;;;;;;;;;;5052858;28;20035;-59
2021/03/06 11:04:28;;;;;;;8.88;1.52;;;;;;;;;;5071478;28;20032;-59
2021/03/06 11:06:54;;;;;;;5.77;1.43;;;;;;;;;;5068757;28;20432;-59
2021/03/06 11:09:23;;;;;;;3.85;1.15;;;;;;;;;;5058295;28;20564;-59
2021/03/06 11:11:48;;;;;;;5.77;1.73;;;;;;;;;;5050863;28;20029;-58
2021/03/06 11:14:24;;;;;;;7.73;1.40;;;;;;;;;;5066378;28;20307;-59
2021/03/06 11:16:49;;;;;;;6.07;1.93;;;;;;;;;;5070460;28;20036;-59
2021/03/06 11:19:15;;;;;;;5.97;1.13;;;;;;;;;;5072119;28;20261;-59
2021/03/06 11:21:40;;;;;;;8.27;1.93;;;;;;;;;;5071719;28;20028;-58
2021/03/06 11:24:06;;;;;;;8.43;1.60;;;;;;;;;;5053315;28;20037;-59
2021/03/06 11:26:31;;;;;;;9.45;2.28;;;;;;;;;;5075102;28;20101;-58
2021/03/06 11:28:56;;;;;;;4.73;1.60;;;;;;;;;;5055904;28;20127;-58
2021/03/06 11:31:23;;;;;;;7.20;1.63;;;;;;;;;;5074888;28;20020;-59
2021/03/06 11:33:48;;;;;;;5.38;1.48;;;;;;;;;;5074814;28;20029;-59
2021/03/06 11:36:14;;;;;;;2.95;1.23;;;;;;;;;;5040594;28;20046;-58
2021/03/06 11:38:39;;;;;;;7.47;1.60;;;;;;;;;;5062934;28;20449;-58
2021/03/06 11:41:05;;;;;;;3.77;1.30;;;;;;;;;;5074261;28;20471;-59
2021/03/06 11:43:30;;;;;;;6.63;1.60;;;;;;;;;;5076183;28;20032;-57
2021/03/06 11:45:56;;;;;;;6.43;1.40;;;;;;;;;;5074383;28;20036;-58
2021/03/06 11:48:21;;;;;;;4.60;1.25;;;;;;;;;;5057504;28;20035;-58
2021/03/06 11:50:48;;;;;;;3.37;1.17;;;;;;;;;;5075130;28;20444;-58
2021/03/06 11:53:14;;;;;;;4.60;1.83;;;;;;;;;;5072043;28;20102;-58
2021/03/06 11:55:40;;;;;;;4.43;1.70;;;;;;;;;;5072701;28;20316;-58
2021/03/06 11:58:05;;;;;;;6.28;1.88;;;;;;;;;;5056186;28;20033;-59
2021/03/06 12:00:32;;;;;;;6.53;1.40;;;;;;;;;;5073476;28;20103;-58
2021/03/06 12:02:57;;;;;;;5.38;1.30;;;;;;;;;;5056045;28;20269;-58
2021/03/06 12:05:23;;;;;;;5.25;1.17;;;;;;;;;;5056588;28;20082;-59
2021/03/06 12:07:50;;;;;;;2.55;1.10;;;;;;;;;;5074633;28;20036;-59
2021/03/06 12:10:17;;;;;;;4.47;1.13;;;;;;;;;;5074692;28;20410;-59
2021/03/06 12:12:44;;;;;;;3.83;1.13;;;;;;;;;;5074207;28;20258;-59
2021/03/06 12:15:10;;;;;;;7.40;2.03;;;;;;;;;;5072361;28;20062;-58
2021/03/06 12:17:36;;;;;;;9.98;1.30;;;;;;;;;;5074483;28;20441;-59
2021/03/06 12:20:02;;;;;;;2.42;0.80;;;;;;;;;;5073579;28;20119;-59
2021/03/06 12:22:27;;;;;;;6.03;1.65;;;;;;;;;;5073998;28;20112;-59
2021/03/06 12:24:53;;;;;;;6.25;1.08;;;;;;;;;;5073409;28;20059;-59
2021/03/06 12:27:18;;;;;;;3.80;0.90;;;;;;;;;;5074183;28;20036;-59
2021/03/06 12:29:44;;;;;;;4.38;1.08;;;;;;;;;;5073792;28;20096;-59
2021/03/06 12:32:10;;;;;;;6.45;1.55;;;;;;;;;;5073571;28;20104;-58
2021/03/06 12:34:35;;;;;;;;;;;;;;;;;;5056715;28;20056;-58
2021/03/06 12:37:01;;;;;;;5.77;1.40;;;;;;;;;;5073126;28;20337;-58
2021/03/06 12:39:26;;;;;;;5.35;1.25;;;;;;;;;;5072344;28;20433;-58
2021/03/06 12:41:53;;;;;;;3.90;1.00;;;;;;;;;;5074099;28;20037;-59
2021/03/06 12:44:18;;;;;;;3.87;1.33;;;;;;;;;;5073603;28;20028;-59
2021/03/06 12:46:43;;;;;;;;;;;;;;;;;;5072816;28;20358;-59
2021/03/06 12:49:11;;;;;;;3.67;1.03;;;;;;;;;;5073380;28;20356;-60
2021/03/06 12:51:37;;;;;;;5.33;1.60;;;;;;;;;;5072471;28;20349;-59
2021/03/06 12:54:02;;;;;;;4.73;1.67;;;;;;;;;;5055224;28;20029;-60
2021/03/06 12:56:27;;;;;;;2.25;0.75;;;;;;;;;;5073577;28;20032;-59
2021/03/06 12:58:53;;;;;;;3.25;0.82;;;;;;;;;;5072375;28;20410;-59
2021/03/06 13:01:18;;;;;;;3.40;1.00;;;;;;;;;;5071430;28;20024;-60
2021/03/06 13:03:43;;;;;;;9.07;1.00;;;;;;;;;;5073260;28;20369;-59
2021/03/06 13:06:09;;;;;;;3.83;1.40;;;;;;;;;;5072725;28;20162;-59
2021/03/06 13:08:34;;;;;;;3.60;1.00;;;;;;;;;;5072038;28;20035;-59
2021/03/06 13:10:59;;;;;;;4.45;1.60;;;;;;;;;;5073005;28;20464;-59
2021/03/06 13:13:25;;;;;;;4.40;1.33;;;;;;;;;;5073580;28;20376;-59
2021/03/06 13:15:50;;;;;;;5.95;1.15;;;;;;;;;;5071829;28;20107;-59
2021/03/06 13:18:16;;;;;;;8.70;1.10;;;;;;;;;;5071231;28;20033;-58
2021/03/06 13:20:41;;;;;;;4.93;1.80;;;;;;;;;;5073196;28;20449;-58
2021/03/06 13:23:07;;;;;;;2.28;0.90;;;;;;;;;;5071254;28;20023;-57
2021/03/06 13:25:33;;;;;;;7.25;1.00;;;;;;;;;;5073350;28;20533;-58
2021/03/06 13:27:58;;;;;;;3.77;0.83;;;;;;;;;;5071565;28;20028;-58
2021/03/06 13:30:24;;;;;;;3.43;1.13;;;;;;;;;;5071675;28;20032;-58
2021/03/06 13:32:49;;;;;;;5.23;1.20;;;;;;;;;;5071560;28;20515;-58
2021/03/06 13:35:15;;;;;;;3.67;1.00;;;;;;;;;;5071999;28;20116;-59
2021/03/06 13:37:40;;;;;;;3.83;0.90;;;;;;;;;;5073058;28;20035;-58
2021/03/06 13:40:06;;;;;;;;;;;;;;;;;;5072227;28;20163;-58
2021/03/06 13:42:31;;;;;;;3.17;0.80;;;;;;;;;;5072805;28;19915;-58
2021/03/06 13:44:56;;;;;;;;;;;;;;;;;;5072995;28;20446;-59
2021/03/06 13:47:22;;;;;;;3.57;1.13;;;;;;;;;;5071902;28;19916;-59
2021/03/06 13:49:47;;;;;;;;;;;;;;;;;;5072209;28;20486;-58
2021/03/06 13:52:12;;;;;;;3.20;1.00;;;;;;;;;;5071785;28;19908;-58
2021/03/06 13:54:37;;;;;;;;;;;;;;;;;;5054811;28;20028;-58
2021/03/06 13:57:03;;;;;;;4.80;1.30;;;;;;;;;;5053683;28;19909;-58
2021/03/06 13:59:28;;;;;;;;;;;;;;;;;;5072950;28;20115;-59
2021/03/06 14:01:54;;;;;;;4.00;0.80;;;;;;;;;;5054626;28;19961;-58
2021/03/06 14:04:19;;;;;;;5.38;1.23;;;;;;;;;;5071862;28;20028;-59
2021/03/06 14:06:44;;;;;;;7.07;1.27;;;;;;;;;;5071990;28;20476;-59
2021/03/06 14:09:10;;;;;;;6.22;1.85;;;;;;;;;;5071994;28;20499;-59
2021/03/06 14:11:35;;;;;;;2.55;1.00;;;;;;;;;;5072140;28;20031;-59
2021/03/06 14:14:01;;;;;;;2.97;0.98;;;;;;;;;;5071930;28;20028;-57
2021/03/06 14:16:26;;;;;;;6.85;1.20;;;;;;;;;;5071706;28;20476;-58
2021/03/06 14:18:51;;;;;;;3.27;1.60;;;;;;;;;;5071903;28;20419;-58
2021/03/06 14:21:17;;;;;;;2.70;1.00;;;;;;;;;;5053255;28;20428;-56
2021/03/06 14:23:42;;;;;;;2.33;1.50;;;;;;;;;;5072241;28;20257;-57
2021/03/06 14:26:07;;;;;;;3.60;1.40;;;;;;;;;;5070592;28;20292;-57
2021/03/06 14:28:33;;;;;;;3.10;1.20;;;;;;;;;;5054020;28;20377;-58
2021/03/06 14:30:58;;;;;;;2.70;1.20;;;;;;;;;;5071851;28;20051;-58
2021/03/06 14:33:24;;;;;;;3.07;1.40;;;;;;;;;;5066629;28;20028;-59
2021/03/06 14:35:49;;;;;;;3.37;1.30;;;;;;;;;;5071758;28;20143;-58